Time;durP1;ratioP1;P1;durP2;ratioP2;P2;SDS_P1;SDS_P2;PMS_P1;PMS_P2;Temp;Humidity;BMP_temperature;BMP_pressure;BME280_temperature;BME280_humidity;BME280_pressure;Samples;Min_cycle;Max_cycle;Signal;HPM_P1;HPM_P2
2022/11/07 00:02:11;;;;;;;5.50;2.33;;;11.50;80.20;;;;;;5072973;28;20044;-38
2022/11/07 00:04:37;;;;;;;5.47;2.83;;;11.50;80.20;;;;;;5073337;28;20150;-39
2022/11/07 00:07:03;;;;;;;3.50;1.42;;;11.50;80.30;;;;;;5073281;28;20020;-38
2022/11/07 00:09:29;;;;;;;3.67;1.58;;;11.50;80.40;;;;;;5073498;28;20060;-40
2022/11/07 00:11:55;;;;;;;2.63;1.40;;;11.40;80.90;;;;;;5073218;28;20113;-38
2022/11/07 00:14:21;;;;;;;3.28;1.75;;;11.40;80.90;;;;;;5073310;28;20025;-38
2022/11/07 00:16:48;;;;;;;2.83;1.17;;;11.40;81.00;;;;;;5073613;28;20028;-38
2022/11/07 00:19:16;;;;;;;7.50;1.73;;;11.40;81.10;;;;;;5073379;28;20024;-38
2022/11/07 00:21:43;;;;;;;2.33;1.40;;;11.50;80.90;;;;;;5071792;28;20032;-38
2022/11/07 00:24:09;;;;;;;4.53;2.13;;;11.50;80.80;;;;;;5075329;28;20048;-38
2022/11/07 00:26:36;;;;;;;3.33;1.15;;;11.50;80.90;;;;;;5077035;28;20028;-38
2022/11/07 00:29:02;;;;;;;5.57;1.55;;;11.50;81.00;;;;;;5077002;28;20099;-38
2022/11/07 00:31:28;;;;;;;1.45;1.10;;;11.50;80.90;;;;;;5075718;28;20074;-38
2022/11/07 00:33:55;;;;;;;4.45;1.58;;;11.60;80.90;;;;;;5077372;28;20025;-38
2022/11/07 00:36:26;;;;;;;3.85;1.55;;;11.50;81.00;;;;;;5077338;28;20407;-46
2022/11/07 00:38:52;;;;;;;1.23;1.13;;;11.60;80.90;;;;;;5075551;28;20051;-38
2022/11/07 00:41:18;;;;;;;3.08;1.55;;;11.50;80.90;;;;;;5075509;28;20024;-38
2022/11/07 00:43:44;;;;;;;1.80;1.67;;;11.60;80.90;;;;;;5076822;28;20029;-38
2022/11/07 00:46:11;;;;;;;4.32;2.00;;;11.60;80.70;;;;;;5076812;28;20070;-38
2022/11/07 00:48:38;;;;;;;4.28;1.77;;;11.60;80.80;;;;;;5076562;28;20429;-38
2022/11/07 00:51:15;;;;;;;3.35;1.60;;;11.60;80.90;;;;;;5076807;28;20020;-38
2022/11/07 00:53:41;;;;;;;5.47;1.98;;;11.60;80.90;;;;;;5076514;28;20020;-40
2022/11/07 00:56:10;;;;;;;2.45;1.45;;;11.60;81.20;;;;;;5076488;28;20040;-39
2022/11/07 00:58:36;;;;;;;2.50;1.33;;;11.60;81.10;;;;;;5076290;28;20033;-39
2022/11/07 01:01:11;;;;;;;4.93;1.50;;;11.50;81.20;;;;;;5076148;28;20099;-38
2022/11/07 01:06:22;;;;;;;5.18;2.15;;;11.60;81.10;;;;;;5076655;28;20269;-38
2022/11/07 01:08:47;;;;;;;2.35;1.65;;;11.60;81.10;;;;;;5076327;28;20024;-38
2022/11/07 01:11:13;;;;;;;4.40;1.92;;;11.60;81.20;;;;;;5076533;28;20058;-39
2022/11/07 01:13:39;;;;;;;3.72;1.60;;;11.60;81.10;;;;;;5076423;28;20025;-38
2022/11/07 01:16:08;;;;;;;4.32;1.52;;;11.60;81.10;;;;;;5076315;28;20024;-39
2022/11/07 01:18:34;;;;;;;2.95;1.85;;;11.70;81.00;;;;;;5076264;28;20024;-40
2022/11/07 01:21:04;;;;;;;3.13;1.83;;;11.70;81.10;;;;;;5076012;28;20043;-38
2022/11/07 01:23:29;;;;;;;1.65;1.33;;;11.70;81.10;;;;;;5075815;28;20400;-38
2022/11/07 01:25:55;;;;;;;4.75;2.17;;;11.60;81.20;;;;;;5076200;28;20024;-37
2022/11/07 01:28:21;;;;;;;7.47;1.75;;;11.60;81.40;;;;;;5076193;28;20021;-38
2022/11/07 01:30:46;;;;;;;4.85;1.85;;;11.60;81.50;;;;;;5076723;28;20446;-38
2022/11/07 01:33:12;;;;;;;1.33;0.90;;;11.50;81.50;;;;;;5076588;28;20024;-39
2022/11/07 01:35:39;;;;;;;4.32;1.83;;;11.50;81.70;;;;;;5076191;28;20020;-39
2022/11/07 01:38:04;;;;;;;2.50;1.13;;;11.50;81.80;;;;;;5076498;28;20032;-38
2022/11/07 01:40:32;;;;;;;3.45;1.63;;;11.50;81.90;;;;;;5076403;28;20395;-39
2022/11/07 01:42:58;;;;;;;6.28;1.67;;;11.40;82.00;;;;;;5075523;28;20025;-39
2022/11/07 01:45:26;;;;;;;2.30;1.40;;;11.30;82.40;;;;;;5076949;28;20020;-39
2022/11/07 01:47:54;;;;;;;3.42;1.88;;;11.30;82.40;;;;;;5075410;28;20024;-39
2022/11/07 01:50:20;;;;;;;4.70;1.73;;;11.30;82.80;;;;;;5076757;28;20101;-39
2022/11/07 01:52:48;;;;;;;4.28;2.03;;;11.30;82.70;;;;;;5077130;28;20427;-39
2022/11/07 01:55:13;;;;;;;3.95;2.15;;;11.30;82.60;;;;;;5076725;28;20017;-40
2022/11/07 01:57:50;;;;;;;3.05;1.60;;;11.30;82.60;;;;;;5077104;28;20031;-38
2022/11/07 02:00:21;;;;;;;2.28;1.30;;;11.20;82.80;;;;;;5076394;28;20024;-39
2022/11/07 02:02:58;;;;;;;3.33;1.63;;;11.10;82.90;;;;;;5073811;28;20135;-38
2022/11/07 02:05:35;;;;;;;1.40;1.27;;;11.00;83.20;;;;;;5075509;28;20031;-43
2022/11/07 02:08:05;;;;;;;3.95;1.33;;;10.90;83.30;;;;;;5058290;28;20036;-38
2022/11/07 02:10:33;;;;;;;1.70;0.95;;;11.00;83.20;;;;;;5074983;28;20028;-38
2022/11/07 02:12:59;;;;;;;5.78;1.50;;;11.00;83.00;;;;;;5075015;28;20052;-38
2022/11/07 02:15:25;;;;;;;5.47;1.52;;;10.90;82.90;;;;;;5075143;28;20415;-38
2022/11/07 02:17:52;;;;;;;4.32;1.33;;;10.90;83.20;;;;;;5075051;28;20032;-38
2022/11/07 02:20:18;;;;;;;1.33;0.98;;;10.90;83.20;;;;;;5074771;28;20390;-38
2022/11/07 02:22:55;;;;;;;5.57;1.77;;;10.90;83.20;;;;;;5075293;28;20024;-38
2022/11/07 02:25:21;;;;;;;2.88;1.65;;;10.80;83.20;;;;;;5074683;28;20047;-38
2022/11/07 02:27:51;;;;;;;5.35;1.48;;;10.90;83.30;;;;;;5073485;28;20076;-38
2022/11/07 02:30:28;;;;;;;1.98;1.38;;;10.80;83.40;;;;;;5074860;28;20017;-38
2022/11/07 02:32:54;;;;;;;9.38;1.67;;;10.80;83.90;;;;;;5074677;28;20025;-38
2022/11/07 02:35:31;;;;;;;1.85;1.25;;;10.80;83.50;;;;;;5074736;28;20061;-39
2022/11/07 02:37:57;;;;;;;2.35;1.33;;;10.80;83.60;;;;;;5074689;28;20040;-39
2022/11/07 02:40:24;;;;;;;2.97;1.38;;;10.80;83.40;;;;;;5074462;28;20025;-39
2022/11/07 02:42:50;;;;;;;3.58;1.23;;;10.90;83.60;;;;;;5074615;28;20483;-38
2022/11/07 02:45:24;;;;;;;3.00;1.30;;;10.80;83.70;;;;;;5074400;28;20028;-41
2022/11/07 02:47:49;;;;;;;2.83;1.30;;;10.80;83.80;;;;;;5074033;28;20024;-40
2022/11/07 02:50:15;;;;;;;2.78;1.40;;;10.80;84.00;;;;;;5074348;28;20028;-47
2022/11/07 02:52:42;;;;;;;2.20;1.25;;;10.80;84.40;;;;;;5074749;28;20031;-40
2022/11/07 02:55:10;;;;;;;2.30;1.27;;;10.80;84.20;;;;;;5072963;28;20392;-40
2022/11/07 02:57:35;;;;;;;2.53;0.98;;;10.80;84.20;;;;;;5074606;28;20025;-39
2022/11/07 03:00:01;;;;;;;3.00;1.23;;;10.90;84.00;;;;;;5074567;28;20043;-39
2022/11/07 03:02:27;;;;;;;5.72;1.92;;;10.90;84.20;;;;;;5073951;28;20090;-40
2022/11/07 03:04:53;;;;;;;5.40;1.48;;;11.00;84.00;;;;;;5074303;28;20070;-37
2022/11/07 03:07:18;;;;;;;3.13;2.35;;;11.10;83.60;;;;;;5074308;28;20047;-38
2022/11/07 03:09:44;;;;;;;8.65;1.27;;;11.00;83.70;;;;;;5074246;28;20016;-38
2022/11/07 03:12:10;;;;;;;10.25;1.85;;;11.20;83.40;;;;;;5074306;28;20029;-38
2022/11/07 03:14:36;;;;;;;2.58;1.27;;;11.20;83.20;;;;;;5074358;28;20078;-40
2022/11/07 03:17:02;;;;;;;2.88;1.10;;;11.20;83.10;;;;;;5074158;28;20028;-39
2022/11/07 03:19:27;;;;;;;1.65;1.45;;;11.20;83.20;;;;;;5074006;28;20484;-38
2022/11/07 03:21:53;;;;;;;5.82;1.33;;;11.20;83.20;;;;;;5073840;28;20361;-38
2022/11/07 03:24:19;;;;;;;3.90;1.48;;;11.20;83.10;;;;;;5073703;28;20024;-39
2022/11/07 03:26:45;;;;;;;3.95;1.70;;;11.20;83.20;;;;;;5072416;28;20025;-39
2022/11/07 03:29:11;;;;;;;2.20;1.63;;;11.30;83.00;;;;;;5073859;28;20016;-39
2022/11/07 03:31:36;;;;;;;5.45;1.40;;;11.30;82.80;;;;;;5073724;28;20078;-39
2022/11/07 03:34:02;;;;;;;3.78;2.08;;;11.30;82.80;;;;;;5073854;28;20048;-39
2022/11/07 03:36:28;;;;;;;3.47;1.40;;;11.30;82.80;;;;;;5073854;28;20063;-39
2022/11/07 03:38:54;;;;;;;16.42;4.45;;;11.40;82.50;;;;;;5073680;28;20056;-40
2022/11/07 03:41:20;;;;;;;6.80;2.65;;;11.30;82.60;;;;;;5072172;28;20024;-40
2022/11/07 03:43:45;;;;;;;3.20;1.50;;;11.30;82.70;;;;;;5072217;28;20021;-39
2022/11/07 03:46:12;;;;;;;3.78;1.40;;;11.30;83.10;;;;;;5073455;28;20248;-39
2022/11/07 03:48:38;;;;;;;3.67;1.42;;;11.20;83.30;;;;;;5073705;28;20043;-39
2022/11/07 03:51:05;;;;;;;6.13;1.30;;;11.10;83.50;;;;;;5073324;28;20099;-38
2022/11/07 03:53:31;;;;;;;4.22;1.58;;;11.00;83.80;;;;;;5074199;28;20330;-39
2022/11/07 03:55:57;;;;;;;3.83;1.77;;;11.00;83.90;;;;;;5073651;28;20102;-40
2022/11/07 03:58:24;;;;;;;4.55;1.67;;;11.00;84.10;;;;;;5073548;28;20029;-40
2022/11/07 04:00:50;;;;;;;7.85;2.17;;;11.00;83.90;;;;;;5073631;28;20468;-39
2022/11/07 04:03:16;;;;;;;3.72;1.52;;;11.00;84.00;;;;;;5073476;28;20052;-39
2022/11/07 04:05:41;;;;;;;6.55;1.65;;;11.00;83.90;;;;;;5073600;28;20154;-39
2022/11/07 04:08:07;;;;;;;9.70;2.00;;;10.90;84.20;;;;;;5073381;28;20021;-38
2022/11/07 04:10:33;;;;;;;7.90;2.15;;;10.80;84.50;;;;;;5073436;28;20461;-40
2022/11/07 04:18:29;;;;;;;12.15;2.15;;;10.80;84.50;;;;;;5073825;28;20500;-38
2022/11/07 04:20:55;;;;;;;5.13;1.23;;;10.80;84.70;;;;;;5073200;28;20058;-39
2022/11/07 04:23:21;;;;;;;4.03;1.23;;;10.80;84.70;;;;;;5073356;28;20051;-38
2022/11/07 04:28:30;;;;;;;5.50;1.90;;;10.80;84.70;;;;;;5073773;28;20582;-39
2022/11/07 04:30:56;;;;;;;7.70;1.75;;;10.70;84.80;;;;;;5073546;28;20096;-38
2022/11/07 04:33:22;;;;;;;7.50;1.55;;;10.80;85.00;;;;;;5071803;28;20064;-38
2022/11/07 04:35:47;;;;;;;5.65;1.80;;;10.80;84.60;;;;;;5073020;28;20029;-39
2022/11/07 04:38:13;;;;;;;6.53;2.72;;;10.80;84.60;;;;;;5072967;28;20035;-38
2022/11/07 04:40:39;;;;;;;4.78;1.60;;;10.80;84.60;;;;;;5072953;28;20035;-39
2022/11/07 04:43:08;;;;;;;8.15;2.53;;;10.80;84.80;;;;;;5073144;28;20052;-40
2022/11/07 04:45:35;;;;;;;4.80;1.73;;;10.80;84.60;;;;;;5072810;28;20067;-39
2022/11/07 04:48:01;;;;;;;4.85;2.58;;;10.80;84.70;;;;;;5073150;28;20029;-39
2022/11/07 04:50:27;;;;;;;8.57;1.58;;;10.80;84.90;;;;;;5072777;28;20024;-39
2022/11/07 04:52:53;;;;;;;12.65;1.67;;;10.80;84.90;;;;;;5071618;28;20075;-39
2022/11/07 04:55:25;;;;;;;9.27;2.20;;;10.80;84.90;;;;;;5072726;28;20071;-39
2022/11/07 04:57:51;;;;;;;4.00;1.88;;;10.80;84.70;;;;;;5072639;28;20024;-38
2022/11/07 05:00:18;;;;;;;5.05;1.50;;;10.80;84.80;;;;;;5072682;28;20029;-38
2022/11/07 05:02:45;;;;;;;7.28;1.48;;;10.80;84.80;;;;;;5071078;28;20089;-38
2022/11/07 05:05:11;;;;;;;4.43;1.77;;;10.80;84.90;;;;;;5072695;28;20025;-38
2022/11/07 05:07:38;;;;;;;5.35;1.83;;;10.80;84.80;;;;;;5073011;28;20107;-38
2022/11/07 05:10:05;;;;;;;1.92;1.27;;;10.80;84.60;;;;;;5074788;28;20483;-39
2022/11/07 05:12:31;;;;;;;5.38;1.90;;;10.90;84.60;;;;;;5076093;28;20481;-39
2022/11/07 05:14:58;;;;;;;4.57;2.25;;;10.80;84.30;;;;;;5076223;28;20028;-38
2022/11/07 05:17:24;;;;;;;5.65;1.30;;;10.90;84.30;;;;;;5076157;28;20474;-39
2022/11/07 05:19:49;;;;;;;6.30;2.28;;;10.90;84.20;;;;;;5076264;28;20106;-38
2022/11/07 05:24:59;;;;;;;3.95;1.95;;;10.90;84.20;;;;;;5076374;28;20487;-38
2022/11/07 05:27:24;;;;;;;9.02;2.05;;;10.90;84.40;;;;;;5075881;28;20024;-38
2022/11/07 05:29:50;;;;;;;11.02;1.73;;;11.00;83.80;;;;;;5075981;28;20040;-38
2022/11/07 05:32:17;;;;;;;8.02;1.67;;;11.00;83.60;;;;;;5076111;28;20040;-39
2022/11/07 05:34:42;;;;;;;10.82;3.20;;;10.90;83.60;;;;;;5076169;28;20078;-39
2022/11/07 05:37:09;;;;;;;5.25;2.15;;;10.90;83.80;;;;;;5075941;28;20415;-39
2022/11/07 05:39:35;;;;;;;5.72;1.65;;;11.00;83.60;;;;;;5075813;28;20472;-39
2022/11/07 05:42:01;;;;;;;5.00;1.65;;;10.90;83.50;;;;;;5075746;28;20025;-38
2022/11/07 05:44:28;;;;;;;5.07;1.88;;;11.00;83.50;;;;;;5074308;28;20025;-39
2022/11/07 05:46:55;;;;;;;4.90;1.63;;;11.00;83.40;;;;;;5075604;28;20401;-38
2022/11/07 05:49:21;;;;;;;4.80;1.38;;;11.00;83.20;;;;;;5075453;28;20100;-38
2022/11/07 05:51:46;;;;;;;8.30;1.80;;;11.00;83.30;;;;;;5076280;28;20435;-39
2022/11/07 05:54:12;;;;;;;7.30;1.90;;;10.90;83.40;;;;;;5075300;28;20036;-39
2022/11/07 05:56:37;;;;;;;13.73;1.80;;;10.90;83.60;;;;;;5074093;28;20024;-38
2022/11/07 05:59:04;;;;;;;8.45;1.85;;;10.80;83.80;;;;;;5075245;28;20130;-40
2022/11/07 06:01:29;;;;;;;3.08;1.42;;;10.90;83.60;;;;;;5074900;28;20053;-39
2022/11/07 06:03:55;;;;;;;9.98;2.60;;;10.90;83.40;;;;;;5075440;28;20047;-39
2022/11/07 06:06:21;;;;;;;9.07;1.63;;;10.90;83.50;;;;;;5075231;28;20103;-38
2022/11/07 06:08:47;;;;;;;7.15;1.40;;;10.90;83.50;;;;;;5076196;28;20024;-39
2022/11/07 06:11:12;;;;;;;5.93;2.10;;;11.00;83.40;;;;;;5074931;28;20060;-39
2022/11/07 06:13:38;;;;;;;4.55;1.40;;;11.00;83.10;;;;;;5075787;28;20071;-42
2022/11/07 06:16:05;;;;;;;9.30;1.45;;;11.00;82.90;;;;;;5074947;28;20032;-39
2022/11/07 06:18:30;;;;;;;8.77;1.63;;;11.10;82.90;;;;;;5075203;28;20338;-39
2022/11/07 16:10:23;;;;;;;13.88;2.60;;;14.30;77.20;;;;;;5091407;27;20726;-50
2022/11/07 16:12:49;;;;;;;8.73;2.00;;;14.30;77.10;;;;;;5090717;28;20035;-49
2022/11/07 16:15:17;;;;;;;10.32;3.08;;;14.40;77.20;;;;;;5090783;28;20024;-48
2022/11/07 16:17:43;;;;;;;6.68;1.65;;;14.40;77.10;;;;;;5090677;28;20074;-49
2022/11/07 16:20:20;;;;;;;15.70;4.30;;;14.40;77.20;;;;;;5090757;28;20039;-49
2022/11/07 16:22:47;;;;;;;5.78;1.45;;;14.40;77.00;;;;;;5090757;28;20032;-49
2022/11/07 16:25:14;;;;;;;6.55;1.65;;;14.50;76.60;;;;;;5090440;28;20024;-52
2022/11/07 16:27:47;;;;;;;11.82;2.78;;;14.50;76.50;;;;;;5090564;28;20028;-54
2022/11/07 16:30:14;;;;;;;8.55;1.83;;;14.40;76.70;;;;;;5090505;28;20025;-49
2022/11/07 16:32:40;;;;;;;7.97;2.70;;;14.40;76.90;;;;;;5090384;28;20103;-49
2022/11/07 16:35:06;;;;;;;7.20;1.60;;;14.50;76.70;;;;;;5090093;28;20051;-48
2022/11/07 16:37:31;;;;;;;7.00;1.75;;;14.60;76.30;;;;;;5090411;28;20028;-50
2022/11/07 16:39:57;;;;;;;6.45;2.28;;;14.50;76.40;;;;;;5090035;28;20020;-51
2022/11/07 16:42:22;;;;;;;6.57;2.45;;;14.50;76.50;;;;;;5090304;28;20032;-50
2022/11/07 16:44:48;;;;;;;5.20;2.38;;;14.50;76.60;;;;;;5090352;28;20399;-49
2022/11/07 16:47:15;;;;;;;6.40;1.83;;;14.40;76.80;;;;;;5090081;28;20085;-48
2022/11/07 16:49:41;;;;;;;3.75;1.77;;;14.40;77.00;;;;;;5090477;28;20024;-51
2022/11/07 16:52:15;;;;;;;5.63;1.80;;;14.50;76.60;;;;;;5088642;28;20027;-49
2022/11/07 16:54:42;;;;;;;4.35;1.40;;;14.50;76.50;;;;;;5090495;28;20050;-50
2022/11/07 16:57:16;;;;;;;20.75;4.68;;;14.50;76.70;;;;;;5088608;28;20025;-49
2022/11/07 16:59:43;;;;;;;3.10;1.77;;;14.40;76.90;;;;;;5088781;28;20024;-48
2022/11/07 17:02:15;;;;;;;5.15;1.85;;;14.40;77.00;;;;;;5089924;28;20075;-49
2022/11/07 17:04:41;;;;;;;7.38;1.95;;;14.40;77.00;;;;;;5090248;28;20035;-52
2022/11/07 17:07:09;;;;;;;6.88;1.70;;;14.40;77.00;;;;;;5089900;28;20028;-49
2022/11/07 17:09:35;;;;;;;6.35;2.08;;;14.40;77.00;;;;;;5089613;28;20040;-49
2022/11/07 17:12:00;;;;;;;7.55;1.95;;;14.40;77.00;;;;;;5089713;28;20078;-50
2022/11/07 17:14:26;;;;;;;3.05;1.45;;;14.40;77.00;;;;;;5089990;28;20100;-50
2022/11/07 17:16:52;;;;;;;3.42;1.85;;;14.50;76.80;;;;;;5089460;28;20028;-50
2022/11/07 17:19:17;;;;;;;7.72;2.10;;;14.40;77.10;;;;;;5089756;28;20025;-49
2022/11/07 17:21:47;;;;;;;6.60;2.08;;;14.50;76.90;;;;;;5075450;28;20020;-52
2022/11/07 17:24:13;;;;;;;5.03;2.80;;;14.40;77.00;;;;;;5075621;28;20021;-49
2022/11/07 17:26:39;;;;;;;8.13;2.35;;;14.30;77.20;;;;;;5075780;28;20751;-50
2022/11/07 17:29:07;;;;;;;3.88;1.38;;;14.30;77.30;;;;;;5075556;28;20043;-50
2022/11/07 17:31:33;;;;;;;4.05;1.42;;;14.30;77.10;;;;;;5075841;28;20017;-50
2022/11/07 17:33:58;;;;;;;3.08;1.35;;;14.30;77.20;;;;;;5075730;28;20047;-49
2022/11/07 17:36:47;;;;;;;3.67;1.50;;;14.40;77.10;;;;;;5075751;28;20028;-48
2022/11/07 17:39:15;;;;;;;4.93;1.48;;;14.30;77.40;;;;;;5075583;28;20033;-49
2022/11/07 17:41:42;;;;;;;10.73;2.30;;;14.30;77.60;;;;;;5075747;28;20078;-49
2022/11/07 17:44:09;;;;;;;6.22;1.38;;;14.30;77.80;;;;;;5075796;28;20032;-49
2022/11/07 17:46:36;;;;;;;9.75;2.00;;;14.30;77.40;;;;;;5075805;28;20033;-49
2022/11/07 17:49:05;;;;;;;4.50;1.05;;;14.30;77.80;;;;;;5075827;28;20043;-50
2022/11/07 17:51:31;;;;;;;4.18;1.77;;;14.30;78.00;;;;;;5076056;28;20563;-50
2022/11/07 17:53:57;;;;;;;2.30;1.55;;;14.30;77.80;;;;;;5075401;28;20050;-50
2022/11/07 17:56:29;;;;;;;6.32;1.50;;;14.20;78.10;;;;;;5075555;28;20024;-49
2022/11/07 17:58:59;;;;;;;5.25;1.63;;;14.30;78.00;;;;;;5075326;28;20044;-50
2022/11/07 18:01:26;;;;;;;7.13;1.48;;;14.20;78.00;;;;;;5076039;28;20047;-50
2022/11/07 18:03:53;;;;;;;8.23;2.03;;;14.30;77.70;;;;;;5075635;28;20032;-48
2022/11/07 18:06:23;;;;;;;5.72;1.75;;;14.30;78.10;;;;;;5074180;28;20029;-49
2022/11/07 18:08:50;;;;;;;2.78;1.10;;;14.30;77.90;;;;;;5075221;28;20044;-49
2022/11/07 18:11:16;;;;;;;6.75;1.45;;;14.30;77.80;;;;;;5073934;28;20036;-51
2022/11/07 18:13:41;;;;;;;3.33;1.58;;;14.20;77.90;;;;;;5075136;28;20078;-51
2022/11/07 18:16:16;;;;;;;6.57;2.03;;;14.30;77.80;;;;;;5073852;28;20020;-49
2022/11/07 18:18:42;;;;;;;5.57;1.42;;;14.30;77.80;;;;;;5074141;28;20020;-49
2022/11/07 18:21:08;;;;;;;4.68;1.33;;;14.20;78.00;;;;;;5075723;28;20099;-49
2022/11/07 18:23:34;;;;;;;7.60;1.90;;;14.30;77.50;;;;;;5075059;28;20074;-48
2022/11/07 18:26:39;;;;;;;6.57;1.52;;;14.30;77.70;;;;;;5073664;28;20029;-48
2022/11/07 18:29:08;;;;;;;5.93;1.85;;;14.40;77.60;;;;;;5040699;28;20076;-48
2022/11/07 18:31:34;;;;;;;4.60;1.60;;;14.30;77.40;;;;;;5073988;28;20025;-49
2022/11/07 18:34:03;;;;;;;4.82;1.63;;;14.30;77.90;;;;;;5074523;28;20039;-48
2022/11/07 18:36:30;;;;;;;2.90;1.40;;;14.30;77.70;;;;;;5075067;28;20111;-51
2022/11/07 18:39:01;;;;;;;5.32;1.48;;;14.40;77.60;;;;;;5074905;28;20029;-48
2022/11/07 18:41:26;;;;;;;6.20;1.55;;;14.30;77.60;;;;;;5075067;28;20468;-49
2022/11/07 18:43:53;;;;;;;6.57;1.98;;;14.30;77.70;;;;;;5074201;28;20077;-47
2022/11/07 18:46:18;;;;;;;5.93;1.60;;;14.30;77.60;;;;;;5074265;28;20021;-48
2022/11/07 18:48:45;;;;;;;2.80;1.35;;;14.40;77.70;;;;;;5072870;28;20086;-48
2022/11/07 18:51:16;;;;;;;3.63;1.38;;;14.30;77.80;;;;;;5074564;28;20121;-49
2022/11/07 18:53:43;;;;;;;6.40;1.73;;;14.30;78.00;;;;;;5074782;28;20027;-48
2022/11/07 18:56:10;;;;;;;3.15;1.50;;;14.30;77.90;;;;;;5074140;28;20468;-49
2022/11/07 18:58:36;;;;;;;5.20;1.58;;;14.30;77.70;;;;;;5074409;28;20086;-49
2022/11/07 19:01:17;;;;;;;5.78;1.73;;;14.40;77.60;;;;;;5074308;28;20028;-47
2022/11/07 19:03:44;;;;;;;4.82;1.83;;;14.40;77.60;;;;;;5074129;28;20028;-49
2022/11/07 19:06:13;;;;;;;7.72;2.03;;;14.40;77.70;;;;;;5073943;28;20107;-49
2022/11/07 19:08:40;;;;;;;2.97;1.52;;;14.40;77.40;;;;;;5073516;28;20144;-48
2022/11/07 19:11:08;;;;;;;4.55;1.30;;;14.40;77.60;;;;;;5073799;28;20027;-48
2022/11/07 19:13:36;;;;;;;8.20;1.88;;;14.30;77.60;;;;;;5073976;28;20031;-57
2022/11/07 19:16:04;;;;;;;5.85;1.80;;;14.30;77.80;;;;;;5073772;28;20060;-48
2022/11/07 19:18:29;;;;;;;4.30;2.40;;;14.30;78.10;;;;;;5073941;28;20020;-48
2022/11/07 19:20:55;;;;;;;8.13;2.05;;;14.30;77.90;;;;;;5073617;28;20035;-48
2022/11/07 19:23:21;;;;;;;7.50;2.13;;;14.30;77.80;;;;;;5073467;28;20492;-48
2022/11/07 19:25:47;;;;;;;10.02;1.77;;;14.30;77.80;;;;;;5073791;28;20024;-48
2022/11/07 19:28:14;;;;;;;2.80;1.35;;;14.30;77.90;;;;;;5073533;28;20036;-53
2022/11/07 19:30:40;;;;;;;5.53;1.38;;;14.20;78.10;;;;;;5073855;28;20044;-49
2022/11/07 19:33:07;;;;;;;3.28;1.35;;;14.20;77.90;;;;;;5073979;28;20020;-48
2022/11/07 19:35:37;;;;;;;3.70;1.40;;;14.20;78.20;;;;;;5074378;28;20417;-50
2022/11/07 19:38:04;;;;;;;8.05;2.88;;;14.30;78.20;;;;;;5073034;28;20012;-49
2022/11/07 19:40:30;;;;;;;8.35;2.50;;;14.20;78.00;;;;;;5073348;28;20036;-51
2022/11/07 19:42:56;;;;;;;7.88;1.80;;;14.20;78.20;;;;;;5072965;28;20066;-48
2022/11/07 19:45:25;;;;;;;7.82;1.65;;;14.20;78.10;;;;;;5073580;28;20364;-48
2022/11/07 19:47:51;;;;;;;5.90;2.53;;;14.30;77.90;;;;;;5073164;28;20076;-48
2022/11/07 19:50:17;;;;;;;6.90;1.90;;;14.30;77.90;;;;;;5073242;28;20036;-49
2022/11/07 19:52:43;;;;;;;5.40;2.00;;;14.30;78.00;;;;;;5056818;28;20472;-49
2022/11/07 19:55:08;;;;;;;8.68;1.85;;;14.30;78.10;;;;;;5073263;28;20024;-49
2022/11/07 19:57:35;;;;;;;3.60;1.98;;;14.10;78.40;;;;;;5073597;28;20099;-50
2022/11/07 20:00:01;;;;;;;11.85;3.10;;;14.20;78.30;;;;;;5074475;28;20025;-50
2022/11/07 20:02:26;;;;;;;3.50;1.33;;;14.20;78.40;;;;;;5071763;28;20059;-50
2022/11/07 20:04:52;;;;;;;6.25;2.00;;;14.20;78.50;;;;;;5073180;28;20028;-48
2022/11/07 20:07:18;;;;;;;4.82;1.83;;;14.20;78.50;;;;;;5073128;28;20024;-49
2022/11/07 20:09:45;;;;;;;5.63;1.65;;;14.30;78.00;;;;;;5073062;28;20041;-54
2022/11/07 20:12:11;;;;;;;4.78;2.45;;;14.30;78.10;;;;;;5072787;28;20024;-50
2022/11/07 20:14:41;;;;;;;7.40;1.73;;;14.40;77.90;;;;;;5072221;28;20070;-50
2022/11/07 20:17:07;;;;;;;8.57;2.13;;;14.30;77.90;;;;;;5071804;28;20032;-51
2022/11/07 20:19:32;;;;;;;5.65;2.05;;;14.30;78.00;;;;;;5072964;28;20472;-49
2022/11/07 20:22:01;;;;;;;8.23;1.80;;;14.40;77.80;;;;;;5073269;28;20028;-48
2022/11/07 20:24:27;;;;;;;4.38;1.52;;;14.40;77.70;;;;;;5071723;28;20028;-49
2022/11/07 20:26:53;;;;;;;8.95;2.20;;;14.40;77.70;;;;;;5073329;28;20033;-48
2022/11/07 20:29:21;;;;;;;5.65;2.08;;;14.40;77.80;;;;;;5073386;28;20024;-48
2022/11/07 20:31:48;;;;;;;5.18;2.10;;;14.50;77.40;;;;;;5073590;28;20042;-49
2022/11/07 20:34:17;;;;;;;5.50;1.67;;;14.50;77.60;;;;;;5074075;28;20024;-48
2022/11/07 20:36:42;;;;;;;7.78;2.08;;;14.50;77.40;;;;;;5073917;28;20381;-49
2022/11/07 20:39:10;;;;;;;7.05;1.65;;;14.50;77.80;;;;;;5073673;28;20039;-49
2022/11/07 20:41:36;;;;;;;2.70;1.33;;;14.50;77.40;;;;;;5073285;28;20082;-50
2022/11/07 20:44:04;;;;;;;8.48;1.20;;;14.50;77.40;;;;;;5073356;28;20036;-49
2022/11/07 20:46:32;;;;;;;11.63;2.38;;;14.50;77.60;;;;;;5074095;28;20046;-49
2022/11/07 20:48:59;;;;;;;6.82;2.50;;;14.50;77.40;;;;;;5074108;28;20430;-50
2022/11/07 20:51:24;;;;;;;12.82;3.42;;;14.50;77.30;;;;;;5074214;28;20051;-53
2022/11/07 20:53:51;;;;;;;16.23;2.30;;;14.50;77.50;;;;;;5074075;28;20465;-51
2022/11/07 20:56:22;;;;;;;5.90;1.77;;;14.50;77.30;;;;;;5076369;28;20508;-49
2022/11/07 20:58:49;;;;;;;6.63;2.10;;;14.50;77.10;;;;;;5078079;28;20033;-49
2022/11/07 21:01:26;;;;;;;6.85;1.77;;;14.50;77.20;;;;;;5077129;28;20029;-48
2022/11/07 21:03:52;;;;;;;9.77;2.63;;;14.40;77.40;;;;;;5078024;28;20028;-51
2022/11/07 21:06:18;;;;;;;8.27;1.55;;;14.40;77.80;;;;;;5076648;28;20058;-49
2022/11/07 21:08:46;;;;;;;5.50;1.98;;;14.30;77.90;;;;;;5076538;28;20052;-50
2022/11/07 21:11:13;;;;;;;11.23;4.88;;;14.30;78.00;;;;;;5075468;28;20111;-50
2022/11/07 21:13:40;;;;;;;4.63;1.65;;;14.30;78.10;;;;;;5076615;28;20017;-48
2022/11/07 21:16:07;;;;;;;8.45;2.40;;;14.20;78.50;;;;;;5076015;28;20025;-49
2022/11/07 21:18:34;;;;;;;6.88;2.85;;;14.00;78.90;;;;;;5075966;28;20032;-50
2022/11/07 21:21:08;;;;;;;9.75;1.67;;;13.90;79.30;;;;;;5076175;28;20436;-52
2022/11/07 21:23:35;;;;;;;5.20;1.63;;;14.10;78.90;;;;;;5075924;28;20025;-48
2022/11/07 21:26:25;;;;;;;4.85;1.88;;;14.00;79.10;;;;;;5076064;28;20115;-48
2022/11/07 21:28:52;;;;;;;9.98;2.33;;;13.90;79.30;;;;;;5075810;28;20028;-48
2022/11/07 21:31:22;;;;;;;5.03;1.85;;;13.90;79.20;;;;;;5076767;28;20075;-49
2022/11/07 21:33:48;;;;;;;6.22;2.63;;;13.80;79.50;;;;;;5076167;28;20025;-49
2022/11/07 21:36:16;;;;;;;6.68;2.10;;;13.80;79.90;;;;;;5075960;28;20029;-50
2022/11/07 21:38:43;;;;;;;12.23;3.00;;;13.80;79.90;;;;;;5075754;28;20468;-49
2022/11/07 21:41:09;;;;;;;5.30;1.60;;;13.70;80.20;;;;;;5075968;28;20411;-48
2022/11/07 21:43:35;;;;;;;8.02;2.53;;;13.80;79.90;;;;;;5076293;28;20108;-49
2022/11/07 21:46:16;;;;;;;11.20;4.15;;;13.60;80.30;;;;;;5075978;28;20431;-47
2022/11/07 21:48:43;;;;;;;11.93;1.98;;;13.70;80.20;;;;;;5075925;28;20028;-50
2022/11/07 21:51:29;;;;;;;5.32;1.70;;;13.60;80.60;;;;;;5075509;28;20025;-50
2022/11/07 21:53:56;;;;;;;3.70;1.80;;;13.60;80.40;;;;;;5075726;28;20063;-49
2022/11/07 21:56:24;;;;;;;7.57;1.70;;;13.50;80.80;;;;;;5075518;28;20020;-50
2022/11/07 21:58:52;;;;;;;7.15;1.90;;;13.60;80.80;;;;;;5075542;28;20029;-50
2022/11/07 22:01:19;;;;;;;8.63;2.30;;;13.50;80.90;;;;;;5075986;28;20096;-49
2022/11/07 22:03:46;;;;;;;10.07;3.05;;;13.50;81.10;;;;;;5057719;28;20492;-48
2022/11/07 22:06:12;;;;;;;6.00;2.40;;;13.40;81.20;;;;;;5075305;28;20048;-48
2022/11/07 22:08:39;;;;;;;7.55;2.15;;;13.50;81.20;;;;;;5075318;28;20060;-49
2022/11/07 22:11:05;;;;;;;9.65;1.73;;;13.40;81.20;;;;;;5075785;28;20465;-50
2022/11/07 22:13:33;;;;;;;11.63;2.60;;;13.30;81.50;;;;;;5057447;28;20097;-51
2022/11/07 22:16:12;;;;;;;8.80;2.30;;;13.30;81.80;;;;;;5075503;28;20099;-51
2022/11/07 22:18:39;;;;;;;6.60;1.80;;;13.30;81.80;;;;;;5075435;28;20522;-50
2022/11/07 22:21:05;;;;;;;3.80;1.50;;;13.30;81.80;;;;;;5073867;28;20032;-50
2022/11/07 22:23:36;;;;;;;11.65;2.38;;;13.30;82.00;;;;;;5075256;28;20024;-49
2022/11/07 22:26:12;;;;;;;6.03;1.20;;;13.30;81.90;;;;;;5075650;28;20082;-48
2022/11/07 22:28:38;;;;;;;8.98;2.28;;;13.20;82.30;;;;;;5074839;28;20032;-48
2022/11/07 22:31:06;;;;;;;6.38;1.95;;;13.20;82.40;;;;;;5074750;28;20066;-49
2022/11/07 22:33:32;;;;;;;6.15;2.00;;;13.30;82.30;;;;;;5074813;28;20052;-49
2022/11/07 22:36:02;;;;;;;9.55;1.98;;;13.10;82.40;;;;;;5074652;28;20051;-50
2022/11/07 22:38:29;;;;;;;6.65;2.50;;;13.10;82.70;;;;;;5074675;28;20055;-51
2022/11/07 22:40:55;;;;;;;6.03;2.13;;;13.10;82.90;;;;;;5074424;28;20138;-48
2022/11/07 22:43:21;;;;;;;5.22;1.98;;;13.20;82.80;;;;;;5074649;28;20029;-48
2022/11/07 22:45:46;;;;;;;10.13;2.92;;;13.10;82.60;;;;;;5074617;28;20031;-48
2022/11/07 22:48:12;;;;;;;11.57;3.30;;;13.00;83.10;;;;;;5074713;28;20495;-48
2022/11/07 22:50:38;;;;;;;4.45;2.20;;;13.00;83.20;;;;;;5074489;28;20021;-47